createdAt,value
2018-12-21T00:00:12.821Z,26.2
2018-12-21T00:01:03.156Z,26.2
2018-12-21T00:32:35.025Z,26.1
2018-12-21T00:33:25.900Z,26.1
2018-12-21T00:34:15.373Z,26.1
2018-12-21T00:35:05.682Z,26.1
2018-12-21T00:35:55.202Z,26.1
2018-12-21T00:36:44.497Z,26.1
2018-12-21T00:37:35.687Z,26.1
2018-12-21T00:38:25.092Z,26.1
2018-12-21T00:39:15.777Z,26
2018-12-21T00:40:05.732Z,26
2018-12-21T00:40:55.801Z,26
2018-12-21T00:41:45.307Z,26
2018-12-21T00:42:35.374Z,26
2018-12-21T00:43:26.022Z,26
2018-12-21T00:44:16.031Z,26
2018-12-21T00:45:05.526Z,26
2018-12-21T00:45:56.139Z,26
2018-12-21T00:46:45.927Z,26
2018-12-21T00:47:36.270Z,26
2018-12-21T00:48:27.449Z,26
2018-12-21T00:49:15.521Z,26
2018-12-21T00:50:06.442Z,26
2018-12-21T00:50:56.196Z,26
2018-12-21T00:51:45.678Z,26
2018-12-21T00:52:36.860Z,26
2018-12-21T00:53:26.740Z,25.9
2018-12-21T00:54:15.870Z,25.9
2018-12-21T00:55:06.226Z,25.9
2018-12-21T00:55:55.157Z,25.9
2018-12-21T00:56:46.038Z,25.9
2018-12-21T00:57:36.930Z,25.9
2018-12-21T00:58:27.301Z,25.9
2018-12-21T00:59:17.051Z,25.9
2018-12-21T01:00:06.365Z,25.9
2018-12-21T01:00:57.155Z,25.9
2018-12-21T01:01:46.928Z,25.9
2018-12-21T01:02:37.270Z,25.9
2018-12-21T01:03:27.373Z,25.9
2018-12-21T01:04:16.815Z,25.9
2018-12-21T01:05:07.210Z,25.9
2018-12-21T01:05:56.962Z,25.9
2018-12-21T01:06:46.981Z,25.9
2018-12-21T01:07:37.083Z,25.9
2018-12-21T01:08:28.298Z,25.9
2018-12-21T01:09:17.970Z,25.9
2018-12-21T01:10:08.138Z,25.9
2018-12-21T01:10:57.555Z,25.9
2018-12-21T01:11:47.640Z,25.9
2018-12-21T01:12:37.781Z,25.9
2018-12-21T01:13:28.302Z,25.9
2018-12-21T01:14:17.879Z,25.9
2018-12-21T01:15:07.042Z,25.9
2018-12-21T01:15:57.419Z,25.9
2018-12-21T01:16:47.772Z,25.9
2018-12-21T01:17:38.099Z,25.9
2018-12-21T01:18:27.973Z,25.9
2018-12-21T01:19:18.029Z,25.9
2018-12-21T01:20:07.189Z,25.9
2018-12-21T01:20:57.477Z,25.9
2018-12-21T01:21:47.811Z,25.9
2018-12-21T01:22:38.435Z,25.8
2018-12-21T01:23:27.944Z,25.8
2018-12-21T01:24:17.989Z,25.9
2018-12-21T01:25:07.739Z,25.8
2018-12-21T01:25:59.146Z,25.8
2018-12-21T01:26:49.015Z,25.8
2018-12-21T01:27:38.156Z,25.8
2018-12-21T01:28:29.276Z,25.8
2018-12-21T01:29:17.953Z,25.8
2018-12-21T01:30:09.458Z,25.8
2018-12-21T01:30:59.504Z,25.8
2018-12-21T01:31:49.566Z,25.8
2018-12-21T01:32:38.778Z,25.8
2018-12-21T01:33:28.556Z,25.8
2018-12-21T01:34:19.453Z,25.8
2018-12-21T01:35:09.213Z,25.8
2018-12-21T01:35:59.258Z,25.8
2018-12-21T01:36:49.905Z,25.8
2018-12-21T01:37:39.480Z,25.8
2018-12-21T01:38:29.677Z,25.8
2018-12-21T01:39:19.513Z,25.8
2018-12-21T01:40:09.863Z,25.8
2018-12-21T01:40:59.910Z,25.8
2018-12-21T01:41:49.933Z,25.8
2018-12-21T01:42:40.013Z,25.8
2018-12-21T01:43:30.410Z,25.8
2018-12-21T01:44:20.178Z,25.8
2018-12-21T01:45:10.693Z,25.8
2018-12-21T01:46:00.241Z,25.8
2018-12-21T01:46:49.723Z,25.8
2018-12-21T01:47:40.358Z,25.8
2018-12-21T01:48:30.137Z,25.8
2018-12-21T01:49:20.168Z,25.8
2018-12-21T01:50:10.840Z,25.8
2018-12-21T01:51:00.847Z,25.8
2018-12-21T01:51:52.835Z,25.8
2018-12-21T01:52:40.673Z,25.8
2018-12-21T01:53:30.775Z,25.7
2018-12-21T01:54:21.428Z,25.7
2018-12-21T01:55:10.662Z,25.7
2018-12-21T01:56:00.368Z,25.7
2018-12-21T01:56:51.225Z,25.7
2018-12-21T01:57:41.390Z,25.7
2018-12-21T01:58:31.344Z,25.7
2018-12-21T01:59:21.147Z,25.8
2018-12-21T02:00:11.728Z,25.7
2018-12-21T02:01:01.547Z,25.7
2018-12-21T02:01:50.288Z,25.7
2018-12-21T02:02:40.815Z,25.7
2018-12-21T02:03:30.593Z,25.7
2018-12-21T02:04:21.766Z,25.7
2018-12-21T02:05:11.795Z,25.7
2018-12-21T02:06:01.567Z,25.8
2018-12-21T02:06:51.412Z,25.7
2018-12-21T02:07:41.432Z,25.7
2018-12-21T02:08:32.282Z,25.7
2018-12-21T02:09:21.078Z,25.7
2018-12-21T02:10:12.140Z,25.7
2018-12-21T02:11:01.707Z,25.7
2018-12-21T02:11:51.974Z,25.8
2018-12-21T02:12:41.503Z,25.7
2018-12-21T02:13:31.850Z,25.7
2018-12-21T02:14:22.143Z,25.8
2018-12-21T02:15:11.479Z,25.7
2018-12-21T02:16:02.514Z,25.7
2018-12-21T02:16:52.052Z,25.7
2018-12-21T02:17:41.823Z,25.7
2018-12-21T02:18:32.169Z,25.7
2018-12-21T02:19:22.486Z,25.7
2018-12-21T02:20:12.270Z,25.7
2018-12-21T02:21:02.861Z,25.7
2018-12-21T02:22:01.810Z,25.7
2018-12-21T02:22:42.494Z,25.6
2018-12-21T02:23:32.517Z,25.6
2018-12-21T02:24:23.109Z,25.6
2018-12-21T02:25:12.324Z,25.6
2018-12-21T02:26:02.699Z,25.6
2018-12-21T02:26:53.331Z,25.7
2018-12-21T02:27:43.354Z,25.7
2018-12-21T02:28:33.393Z,25.7
2018-12-21T02:29:22.957Z,25.7
2018-12-21T02:30:13.407Z,25.8
2018-12-21T02:31:03.841Z,25.8
2018-12-21T02:31:53.243Z,25.8
2018-12-21T02:32:42.791Z,25.9
2018-12-21T02:33:33.377Z,25.9
2018-12-21T02:34:23.295Z,25.9
2018-12-21T02:35:13.307Z,26.1
2018-12-21T02:36:03.450Z,26.1
2018-12-21T02:36:53.744Z,26.2
2018-12-21T02:37:43.603Z,26.3
2018-12-21T02:38:34.085Z,26.3
2018-12-21T02:39:24.269Z,26.4
2018-12-21T02:40:13.375Z,26.4
2018-12-21T02:41:04.043Z,26.5
2018-12-21T02:41:54.321Z,26.6
2018-12-21T02:42:43.591Z,26.7
2018-12-21T02:43:34.010Z,26.8
2018-12-21T02:44:23.246Z,26.8
2018-12-21T02:45:14.570Z,26.9
2018-12-21T02:46:04.396Z,27
2018-12-21T02:46:54.540Z,27.1
2018-12-21T02:47:43.598Z,27.1
2018-12-21T02:48:35.015Z,27.3
2018-12-21T02:49:23.229Z,27.3
2018-12-21T02:50:14.166Z,27.4
2018-12-21T02:51:04.702Z,27.5
2018-12-21T02:51:54.917Z,27.6
2018-12-21T02:52:44.922Z,27.7
2018-12-21T02:53:34.570Z,27.8
2018-12-21T02:54:24.955Z,27.9
2018-12-21T02:55:15.002Z,27.9
2018-12-21T02:56:04.452Z,28.1
2018-12-21T02:56:54.815Z,28.1
2018-12-21T02:57:44.585Z,28.3
2018-12-21T02:58:35.165Z,28.3
2018-12-21T02:59:24.972Z,28.4
2018-12-21T03:00:15.019Z,28.5
2018-12-21T03:01:05.248Z,28.6
2018-12-21T03:01:55.749Z,28.8
2018-12-21T03:02:45.195Z,28.8
2018-12-21T03:03:34.689Z,28.9
2018-12-21T03:04:25.588Z,29
2018-12-21T03:05:16.237Z,29.1
2018-12-21T03:06:05.284Z,29.3
2018-12-21T03:06:55.569Z,29.4
2018-12-21T03:07:46.089Z,29.4
2018-12-21T03:08:34.727Z,29.6
2018-12-21T03:09:26.227Z,29.6
2018-12-21T03:10:15.761Z,29.8
2018-12-21T03:11:05.863Z,29.8
2018-12-21T03:11:55.597Z,29.9
2018-12-21T03:12:46.718Z,30.1
2018-12-21T03:13:36.194Z,30.2
2018-12-21T03:14:26.619Z,30.3
2018-12-21T03:15:16.549Z,30.4
2018-12-21T03:16:06.776Z,30.5
2018-12-21T03:16:56.411Z,30.6
2018-12-21T03:17:46.226Z,30.7
2018-12-21T03:18:36.546Z,30.8
2018-12-21T03:19:26.068Z,30.9
2018-12-21T03:20:16.372Z,31.1
2018-12-21T03:21:06.101Z,31.1
2018-12-21T03:21:56.212Z,31.3
2018-12-21T03:22:46.769Z,31.4
2018-12-21T03:23:37.472Z,31.5
2018-12-21T03:24:26.134Z,31.6
2018-12-21T03:25:16.795Z,31.7
2018-12-21T03:26:07.163Z,31.8
2018-12-21T03:26:57.128Z,31.9
2018-12-21T03:27:47.434Z,32
2018-12-21T03:28:36.958Z,32.1
2018-12-21T03:29:27.570Z,32.3
2018-12-21T03:30:17.740Z,32.3
2018-12-21T03:31:07.722Z,32.4
2018-12-21T03:31:57.628Z,32.6
2018-12-21T03:32:46.901Z,32.6
2018-12-21T03:33:37.085Z,32.7
2018-12-21T03:34:28.082Z,32.8
2018-12-21T03:35:17.542Z,32.9
2018-12-21T03:36:08.040Z,32.9
2018-12-21T03:36:57.507Z,33
2018-12-21T03:37:47.710Z,33.1
2018-12-21T03:38:38.390Z,33.1
2018-12-21T03:39:28.220Z,33.1
2018-12-21T03:40:18.746Z,33.2
2018-12-21T03:41:08.082Z,33.3
2018-12-21T03:41:57.862Z,33.3
2018-12-21T03:42:48.174Z,33.3
2018-12-21T03:43:37.957Z,33.3
2018-12-21T03:44:28.288Z,33.3
2018-12-21T03:45:18.092Z,33.4
2018-12-21T03:46:07.850Z,33.4
2018-12-21T03:46:58.462Z,33.4
2018-12-21T03:47:48.542Z,33.4
2018-12-21T03:48:38.026Z,33.4
2018-12-21T03:49:29.179Z,33.4
2018-12-21T03:50:18.154Z,33.5
2018-12-21T03:51:09.022Z,33.5
2018-12-21T03:51:58.605Z,33.5
2018-12-21T03:52:48.367Z,33.5
2018-12-21T03:53:38.636Z,33.5
2018-12-21T03:54:28.411Z,33.5
2018-12-21T03:55:18.648Z,33.5
2018-12-21T03:56:08.833Z,33.6
2018-12-21T03:56:58.315Z,33.6
2018-12-21T03:57:48.096Z,33.6
2018-12-21T03:58:38.725Z,33.6
2018-12-21T03:59:29.296Z,33.6
2018-12-21T04:00:19.763Z,33.6
2018-12-21T04:01:08.976Z,33.6
2018-12-21T04:01:59.281Z,33.6
2018-12-21T04:02:49.572Z,33.6
2018-12-21T04:03:38.781Z,33.6
2018-12-21T04:04:29.936Z,33.6
2018-12-21T04:05:19.977Z,33.6
2018-12-21T04:06:09.766Z,33.6
2018-12-21T04:06:59.849Z,33.6
2018-12-21T04:07:49.343Z,33.6
2018-12-21T04:08:39.763Z,33.6
2018-12-21T04:09:29.847Z,33.6
2018-12-21T04:10:20.070Z,33.6
2018-12-21T04:11:09.100Z,33.6
2018-12-21T04:12:00.218Z,33.6
2018-12-21T04:12:49.735Z,33.6
2018-12-21T04:13:39.463Z,33.6
2018-12-21T04:14:30.083Z,33.6
2018-12-21T04:15:20.648Z,33.6
2018-12-21T04:16:09.680Z,33.6
2018-12-21T04:17:00.581Z,33.6
2018-12-21T04:17:50.983Z,33.6
2018-12-21T04:18:40.945Z,33.6
2018-12-21T04:19:30.980Z,33.6
2018-12-21T04:20:20.477Z,33.6
2018-12-21T04:21:10.033Z,33.6
2018-12-21T04:22:00.345Z,33.6
2018-12-21T04:22:50.352Z,33.6
2018-12-21T04:23:40.712Z,33.6
2018-12-21T04:24:30.997Z,33.6
2018-12-21T04:25:21.812Z,33.6
2018-12-21T04:26:10.624Z,33.6
2018-12-21T04:27:01.715Z,33.6
2018-12-21T04:27:51.547Z,33.6
2018-12-21T04:28:40.590Z,33.6
2018-12-21T04:29:31.368Z,33.6
2018-12-21T04:30:22.053Z,33.6
2018-12-21T04:31:10.442Z,33.6
2018-12-21T04:32:01.117Z,33.6
2018-12-21T04:32:51.657Z,33.6
2018-12-21T04:33:40.593Z,33.6
2018-12-21T04:34:30.958Z,33.6
2018-12-21T04:35:21.041Z,33.6
2018-12-21T04:36:11.670Z,33.6
2018-12-21T04:37:01.679Z,33.6
2018-12-21T04:37:51.909Z,33.6
2018-12-21T04:38:41.495Z,33.6
2018-12-21T04:39:31.621Z,33.6
2018-12-21T04:40:21.947Z,33.6
2018-12-21T04:41:12.148Z,33.6
2018-12-21T04:42:02.451Z,33.6
2018-12-21T04:42:51.991Z,33.6
2018-12-21T04:43:42.048Z,33.6
2018-12-21T04:44:32.388Z,33.6
2018-12-21T05:01:52.939Z,33.6
2018-12-21T05:02:56.860Z,33.6
2018-12-21T05:04:02.216Z,33.6
2018-12-21T05:04:29.540Z,33.6
2018-12-21T05:05:20.177Z,33.6
2018-12-21T05:06:25.491Z,33.6
2018-12-21T05:07:00.187Z,33.6
2018-12-21T05:07:49.517Z,33.6
2018-12-21T05:08:40.085Z,33.6
2018-12-21T09:16:19.234Z,32.4
2018-12-21T09:17:09.401Z,32.4
2018-12-21T09:17:59.461Z,32.4
2018-12-21T09:18:50.074Z,32.4
2018-12-21T09:19:40.119Z,32.4
2018-12-21T09:20:29.346Z,32.4
2018-12-21T09:21:20.891Z,32.4
2018-12-21T09:22:10.308Z,32.4
2018-12-21T09:23:00.056Z,32.4
2018-12-21T09:23:50.638Z,32.4
2018-12-21T09:24:40.721Z,32.4
2018-12-21T09:25:30.485Z,32.4
2018-12-21T09:26:21.323Z,32.4
2018-12-21T09:27:10.340Z,32.4
2018-12-21T09:28:00.383Z,32.4
2018-12-21T09:28:49.603Z,32.4
2018-12-21T09:29:40.473Z,32.4
2018-12-21T09:30:31.120Z,32.4
2018-12-21T09:31:20.655Z,32.3
2018-12-21T09:32:11.233Z,32.4
2018-12-21T09:33:00.442Z,32.3
2018-12-21T09:33:50.783Z,32.3
2018-12-21T09:34:41.081Z,32.3
2018-12-21T09:35:31.170Z,32.3
2018-12-21T09:36:20.407Z,32.3
2018-12-21T09:37:11.660Z,32.3
2018-12-21T09:38:01.072Z,32.3
2018-12-21T09:38:50.850Z,32.3
2018-12-21T09:39:40.877Z,32.3
2018-12-21T09:40:31.058Z,32.3
2018-12-21T09:41:21.651Z,32.3
2018-12-21T09:42:11.597Z,32.3
2018-12-21T09:43:00.844Z,32.3
2018-12-21T09:43:51.502Z,32.3
2018-12-21T09:44:41.515Z,32.3
2018-12-21T09:45:31.282Z,32.3
2018-12-21T09:46:21.903Z,32.3
2018-12-21T09:47:12.292Z,32.3
2018-12-21T09:48:01.624Z,32.3
2018-12-21T09:48:51.524Z,32.3
2018-12-21T09:49:41.858Z,32.3
2018-12-21T09:50:32.791Z,32.2
2018-12-21T09:51:21.973Z,32.3
2018-12-21T09:52:12.576Z,32.2
2018-12-21T09:53:01.544Z,32.2
2018-12-21T09:53:51.345Z,32.2
2018-12-21T09:54:42.461Z,32.2
2018-12-21T09:55:32.550Z,32.2
2018-12-21T09:56:21.748Z,32.2
2018-12-21T09:57:12.135Z,32.2
2018-12-21T09:58:02.479Z,32.2
2018-12-21T09:58:52.488Z,32.1
2018-12-21T09:59:41.971Z,32.2
2018-12-21T10:00:32.313Z,32.2
2018-12-21T10:01:22.923Z,32.2
2018-12-21T10:02:12.933Z,32.1
2018-12-21T10:03:02.218Z,32.1
2018-12-21T10:03:52.826Z,32.1
2018-12-21T10:04:42.398Z,32.1
2018-12-21T10:05:32.712Z,32.1
2018-12-21T10:06:23.610Z,32.1
2018-12-21T10:07:13.313Z,32.1
2018-12-21T10:08:02.437Z,32.1
2018-12-21T10:08:53.202Z,32.1
2018-12-21T10:09:43.480Z,32.1
2018-12-21T10:10:33.924Z,32.1
2018-12-21T10:11:23.422Z,32.1
2018-12-21T10:12:12.812Z,32.1
2018-12-21T10:13:03.458Z,32.1
2018-12-21T10:13:54.173Z,32.1
2018-12-21T10:14:43.537Z,32.1
2018-12-21T10:15:33.987Z,32.1
2018-12-21T10:16:23.951Z,32.1
2018-12-21T10:17:14.101Z,32.1
2018-12-21T10:18:04.628Z,32.1
2018-12-21T10:18:53.565Z,32.1
2018-12-21T10:19:43.597Z,32.1
2018-12-21T10:20:34.211Z,32.1
2018-12-21T10:21:24.261Z,32.1
2018-12-21T10:22:13.836Z,32.1
2018-12-21T10:23:04.632Z,32.1
2018-12-21T10:23:53.974Z,32.1
2018-12-21T10:24:44.021Z,32.1
2018-12-21T10:25:34.341Z,32.1
2018-12-21T10:26:23.969Z,32.1
2018-12-21T10:27:13.976Z,32
2018-12-21T10:28:04.264Z,32.1
2018-12-21T10:28:54.546Z,32
2018-12-21T10:29:44.069Z,32
2018-12-21T10:30:33.408Z,32
2018-12-21T10:31:24.651Z,32
2018-12-21T10:32:15.241Z,32
2018-12-21T10:33:04.494Z,32
2018-12-21T10:33:55.408Z,32
2018-12-21T10:34:45.483Z,32
2018-12-21T10:35:34.929Z,32
2018-12-21T10:36:24.828Z,32
2018-12-21T10:37:17.034Z,31.9
2018-12-21T10:38:05.381Z,31.9
2018-12-21T10:38:56.008Z,31.9
2018-12-21T10:39:45.243Z,32
2018-12-21T10:40:34.715Z,32
2018-12-21T10:41:25.972Z,31.9
2018-12-21T10:42:15.665Z,31.9
2018-12-21T10:43:05.844Z,31.9
2018-12-21T10:43:56.046Z,31.9
2018-12-21T10:44:45.869Z,31.9
2018-12-21T10:45:44.605Z,31.9
2018-12-21T10:46:25.659Z,31.9
2018-12-21T10:47:15.719Z,31.9
2018-12-21T10:48:06.086Z,31.9
2018-12-21T10:48:55.881Z,31.9
2018-12-21T10:49:45.908Z,31.9
2018-12-21T10:50:36.494Z,31.9
2018-12-21T10:51:25.996Z,31.9
2018-12-21T10:52:15.785Z,31.9
2018-12-21T10:53:05.948Z,31.9
2018-12-21T10:53:56.160Z,31.9
2018-12-21T10:54:46.853Z,31.9
2018-12-21T10:55:36.351Z,31.9
2018-12-21T10:56:26.070Z,31.9
2018-12-21T10:57:16.403Z,31.9
2018-12-21T10:58:07.225Z,31.9
2018-12-21T10:58:57.132Z,31.9
2018-12-21T10:59:49.315Z,31.9
2018-12-21T11:00:37.278Z,31.9
2018-12-21T11:01:26.972Z,31.9
2018-12-21T11:02:16.815Z,31.9
2018-12-21T11:03:06.500Z,31.8
2018-12-21T11:03:56.278Z,31.8
2018-12-21T11:04:47.176Z,31.8
2018-12-21T11:05:37.520Z,31.8
2018-12-21T11:06:27.022Z,31.8
2018-12-21T11:07:17.353Z,31.8
2018-12-21T11:08:07.405Z,31.8
2018-12-21T11:08:56.892Z,31.8
2018-12-21T11:09:47.785Z,31.8
2018-12-21T11:10:37.605Z,31.8
2018-12-21T11:11:27.342Z,31.8
2018-12-21T11:12:17.400Z,31.8
2018-12-21T11:13:06.905Z,31.8
2018-12-21T11:13:57.771Z,31.8
2018-12-21T11:14:46.997Z,31.8
2018-12-21T11:15:37.974Z,31.8
2018-12-21T11:16:27.664Z,31.8
2018-12-21T11:17:17.246Z,31.8
2018-12-21T11:18:07.281Z,31.8
2018-12-21T11:18:56.809Z,31.8
2018-12-21T11:19:47.352Z,31.8
2018-12-21T11:20:38.551Z,31.8
2018-12-21T11:21:28.341Z,31.8
2018-12-21T11:22:18.154Z,31.7
2018-12-21T11:23:08.149Z,31.7
2018-12-21T11:23:58.183Z,31.7
2018-12-21T11:24:48.516Z,31.7
2018-12-21T11:25:38.614Z,31.7
2018-12-21T11:26:28.911Z,31.7
2018-12-21T11:27:18.756Z,31.7
2018-12-21T11:28:08.469Z,31.7
2018-12-21T11:28:58.756Z,31.7
2018-12-21T11:29:51.144Z,31.7
2018-12-21T11:30:38.701Z,31.7
2018-12-21T11:31:28.791Z,31.7
2018-12-21T11:32:18.303Z,31.7
2018-12-21T11:33:09.092Z,31.7
2018-12-21T11:33:59.468Z,31.7
2018-12-21T11:34:48.363Z,31.7
2018-12-21T11:35:39.315Z,31.6
2018-12-21T11:36:29.030Z,31.6
2018-12-21T11:37:19.120Z,31.6
2018-12-21T11:38:08.878Z,31.7
2018-12-21T11:38:59.441Z,31.6
2018-12-21T11:39:49.806Z,31.6
2018-12-21T11:40:39.653Z,31.6
2018-12-21T11:41:30.056Z,31.6
2018-12-21T11:42:19.688Z,31.6
2018-12-21T11:43:09.479Z,31.6
2018-12-21T11:43:59.058Z,31.6
2018-12-21T11:44:49.861Z,31.6
2018-12-21T11:45:40.205Z,31.6
2018-12-21T11:46:29.707Z,31.6
2018-12-21T11:47:20.038Z,31.6
2018-12-21T11:48:09.378Z,31.6
2018-12-21T11:49:00.818Z,31.6
2018-12-21T11:49:50.245Z,31.6
2018-12-21T11:50:40.136Z,31.6
2018-12-21T11:51:29.550Z,31.6
2018-12-21T11:52:20.368Z,31.6
2018-12-21T11:53:10.432Z,31.6
2018-12-21T11:54:00.457Z,31.6
2018-12-21T11:54:50.278Z,31.6
2018-12-21T11:55:40.321Z,31.6
2018-12-21T11:56:30.917Z,31.6
2018-12-21T11:57:20.840Z,31.6
2018-12-21T11:58:10.500Z,31.6
2018-12-21T11:58:59.742Z,31.6
2018-12-21T11:59:50.685Z,31.6
2018-12-21T12:00:41.221Z,31.5
2018-12-21T12:01:30.207Z,31.5
2018-12-21T12:02:25.657Z,31.5
2018-12-21T12:03:10.837Z,31.6
2018-12-21T12:04:01.267Z,31.5
2018-12-21T12:04:50.944Z,31.5
2018-12-21T12:05:40.739Z,31.5
2018-12-21T12:06:31.037Z,31.5
2018-12-21T12:07:21.237Z,31.5
2018-12-21T12:08:10.909Z,31.5
2018-12-21T12:09:10.306Z,31.5
2018-12-21T12:09:51.551Z,31.5
2018-12-21T12:10:42.209Z,31.4
2018-12-21T12:11:31.949Z,31.5
2018-12-21T12:12:21.729Z,31.5
2018-12-21T12:13:10.671Z,31.5
2018-12-21T12:14:00.738Z,31.5
2018-12-21T12:14:51.891Z,31.4
2018-12-21T12:15:41.981Z,31.4
2018-12-21T12:16:32.018Z,31.4
2018-12-21T12:17:22.062Z,31.4
2018-12-21T12:18:11.123Z,31.4
2018-12-21T12:19:01.338Z,31.4
2018-12-21T12:19:52.469Z,31.4
2018-12-21T12:20:42.558Z,31.4
2018-12-21T12:21:32.371Z,31.4
2018-12-21T12:22:22.120Z,31.4
2018-12-21T12:23:12.473Z,31.4
2018-12-21T12:24:02.798Z,31.4
2018-12-21T12:25:01.448Z,31.4
2018-12-21T12:25:42.345Z,31.4
2018-12-21T12:26:32.963Z,31.4
2018-12-21T12:27:22.832Z,31.4
2018-12-21T12:28:13.115Z,31.4
2018-12-21T12:29:02.337Z,31.4
2018-12-21T12:29:52.639Z,31.4
2018-12-21T12:30:43.245Z,31.4
2018-12-21T12:31:32.525Z,31.4
2018-12-21T12:32:22.266Z,31.4
2018-12-21T12:33:12.848Z,31.3
2018-12-21T12:34:02.752Z,31.4
2018-12-21T12:34:53.260Z,31.3
2018-12-21T12:35:43.565Z,31.4
2018-12-21T12:36:33.182Z,31.3
2018-12-21T12:37:21.750Z,31.3
2018-12-21T12:38:13.244Z,31.3
2018-12-21T12:39:03.252Z,31.3
2018-12-21T12:39:52.830Z,31.3
2018-12-21T12:40:42.649Z,31.3
2018-12-21T12:41:33.655Z,31.3
2018-12-21T12:42:23.275Z,31.3
2018-12-21T12:43:13.121Z,31.3
2018-12-21T12:44:03.304Z,31.3
2018-12-21T12:44:52.339Z,31.3
2018-12-21T12:45:43.221Z,31.3
2018-12-21T12:46:33.513Z,31.3
2018-12-21T12:47:24.025Z,31.3
2018-12-21T12:48:14.264Z,31.3
2018-12-21T12:49:03.711Z,31.3
2018-12-21T12:49:53.979Z,31.3
2018-12-21T12:50:44.599Z,31.3
2018-12-21T12:51:34.446Z,31.3
2018-12-21T12:52:25.268Z,31.3
2018-12-21T12:53:14.234Z,31.3
2018-12-21T12:54:04.204Z,31.3
2018-12-21T12:55:04.788Z,31.3
2018-12-21T12:55:44.671Z,31.3
2018-12-21T12:56:35.093Z,31.2
2018-12-21T12:57:24.793Z,31.2
2018-12-21T12:58:14.925Z,31.2
2018-12-21T12:59:04.881Z,31.2
2018-12-21T12:59:54.668Z,31.2
2018-12-21T13:00:45.063Z,31.2
2018-12-21T13:01:34.790Z,31.2
2018-12-21T13:02:24.826Z,31.2
2018-12-21T13:03:14.110Z,31.2
2018-12-21T13:04:04.671Z,31.2
2018-12-21T13:04:55.254Z,31.2
2018-12-21T13:05:45.056Z,31.2
2018-12-21T13:06:35.692Z,31.1
2018-12-21T13:07:25.158Z,31.2
2018-12-21T13:08:14.673Z,31.1
2018-12-21T13:09:05.305Z,31.1
2018-12-21T13:09:55.860Z,31.1
2018-12-21T13:10:45.940Z,31.1
2018-12-21T13:11:35.201Z,31.1
2018-12-21T13:12:25.345Z,31.1
2018-12-21T13:13:16.118Z,31.1
2018-12-21T13:14:05.341Z,31.1
2018-12-21T13:14:55.372Z,31.1
2018-12-21T13:15:46.303Z,31.1
2018-12-21T13:16:36.247Z,31.1
2018-12-21T13:17:25.896Z,31.1
2018-12-21T13:18:15.900Z,31.1
2018-12-21T13:19:05.997Z,31.1
2018-12-21T13:19:55.715Z,31.1
2018-12-21T13:20:46.165Z,31.1
2018-12-21T13:21:36.395Z,31.1
2018-12-21T13:22:26.176Z,31.1
2018-12-21T13:23:16.123Z,31.1
2018-12-21T13:24:06.286Z,31.1
2018-12-21T13:24:56.089Z,31.1
2018-12-21T13:25:46.112Z,31.1
2018-12-21T13:26:36.457Z,31.1
2018-12-21T13:27:26.914Z,31.1
2018-12-21T13:28:15.729Z,31
2018-12-21T13:29:06.859Z,31
2018-12-21T13:29:56.961Z,31
2018-12-21T13:30:46.466Z,31
2018-12-21T13:31:36.522Z,31
2018-12-21T13:32:27.131Z,31
2018-12-21T13:33:16.922Z,31
2018-12-21T13:34:07.534Z,31
2018-12-21T13:34:57.103Z,31
2018-12-21T13:35:47.673Z,31
2018-12-21T13:36:39.581Z,30.9
2018-12-21T13:37:27.721Z,30.9
2018-12-21T13:38:17.509Z,30.9
2018-12-21T13:39:07.294Z,30.9
2018-12-21T13:39:57.140Z,30.9
2018-12-21T13:40:47.926Z,30.9
2018-12-21T13:41:36.919Z,30.9
2018-12-21T13:42:30.263Z,30.9
2018-12-21T13:43:17.307Z,30.9
2018-12-21T13:44:08.191Z,30.9
2018-12-21T13:44:57.431Z,30.9
2018-12-21T13:45:48.282Z,30.9
2018-12-21T13:46:38.100Z,30.9
2018-12-21T13:47:27.859Z,30.9
2018-12-21T13:48:18.631Z,30.9
2018-12-21T13:49:09.021Z,30.9
2018-12-21T13:49:58.133Z,30.9
2018-12-21T13:50:48.620Z,30.9
2018-12-21T13:51:37.970Z,30.9
2018-12-21T13:52:28.480Z,30.9
2018-12-21T13:53:18.511Z,30.9
2018-12-21T13:54:08.583Z,30.9
2018-12-21T13:54:58.065Z,30.9
2018-12-21T13:55:49.061Z,30.9
2018-12-21T13:56:38.571Z,30.9
2018-12-21T13:57:28.543Z,30.9
2018-12-21T13:58:18.408Z,30.9
2018-12-21T14:15:08.304Z,30.8
2018-12-21T14:15:58.609Z,30.8
2018-12-21T14:16:48.656Z,30.8
2018-12-21T14:17:38.282Z,30.8
2018-12-21T14:18:29.129Z,30.8
2018-12-21T14:19:18.844Z,30.8
2018-12-21T14:20:08.900Z,30.8
2018-12-21T14:20:58.919Z,30.7
2018-12-21T14:21:48.706Z,30.7
2018-12-21T14:22:38.494Z,30.7
2018-12-21T14:23:28.556Z,30.7
2018-12-21T14:24:18.909Z,30.7
2018-12-21T14:25:09.252Z,30.7
2018-12-21T14:25:59.011Z,30.7
2018-12-21T14:26:49.581Z,30.7
2018-12-21T14:27:39.106Z,30.7
2018-12-21T14:28:29.544Z,30.7
2018-12-21T14:29:20.084Z,30.7
2018-12-21T14:30:08.979Z,30.7
2018-12-21T14:30:59.886Z,30.7
2018-12-21T14:31:49.396Z,30.6
2018-12-21T14:32:39.838Z,30.6
2018-12-21T14:33:29.508Z,30.6
2018-12-21T14:34:20.124Z,30.6
2018-12-21T14:35:09.328Z,30.6
2018-12-21T14:35:59.697Z,30.6
2018-12-21T14:36:50.007Z,30.6
2018-12-21T14:37:40.330Z,30.6
2018-12-21T14:38:29.840Z,30.6
2018-12-21T14:39:20.180Z,30.6
2018-12-21T14:40:10.230Z,30.6
2018-12-21T14:40:59.178Z,30.6
2018-12-21T14:41:50.075Z,30.6
2018-12-21T14:42:40.123Z,30.6
2018-12-21T14:43:30.727Z,30.6
2018-12-21T14:44:20.515Z,30.6
2018-12-21T14:45:10.089Z,30.6
2018-12-21T14:45:59.592Z,30.6
2018-12-21T14:46:49.569Z,30.6
2018-12-21T14:47:40.277Z,30.6
2018-12-21T14:48:30.035Z,30.6
2018-12-21T14:49:19.337Z,30.6
2018-12-21T14:50:09.967Z,30.6
2018-12-21T14:51:00.477Z,30.6
2018-12-21T14:51:51.214Z,30.6
2018-12-21T14:52:40.632Z,30.6
2018-12-21T14:53:30.363Z,30.6
2018-12-21T14:54:20.644Z,30.5
2018-12-21T14:55:10.947Z,30.5
2018-12-21T14:56:00.799Z,30.5
2018-12-21T14:56:50.824Z,30.5
2018-12-21T14:57:40.692Z,30.6
2018-12-21T14:58:30.911Z,30.5
2018-12-21T14:59:23.538Z,30.5
2018-12-21T15:00:13.111Z,30.5
2018-12-21T15:01:04.097Z,30.5
2018-12-21T15:01:54.639Z,30.5
2018-12-21T15:02:42.724Z,30.5
2018-12-21T15:03:32.617Z,30.5
2018-12-21T15:04:23.407Z,30.5
2018-12-21T15:05:12.726Z,30.5
2018-12-21T15:06:02.138Z,30.5
2018-12-21T15:06:52.319Z,30.5
2018-12-21T15:07:41.830Z,30.5
2018-12-21T15:08:32.164Z,30.5
2018-12-21T15:09:22.750Z,30.5
2018-12-21T15:10:12.003Z,30.5
2018-12-21T15:11:02.298Z,30.5
2018-12-21T15:11:52.356Z,30.5
2018-12-21T15:12:42.701Z,30.5
2018-12-21T15:13:32.218Z,30.4
2018-12-21T15:14:22.850Z,30.4
2018-12-21T15:15:12.932Z,30.4
2018-12-21T15:16:03.018Z,30.4
2018-12-21T15:16:52.969Z,30.4
2018-12-21T15:17:42.761Z,30.4
2018-12-21T15:18:32.523Z,30.4
2018-12-21T15:19:22.575Z,30.4
2018-12-21T15:20:13.049Z,30.4
2018-12-21T15:21:02.755Z,30.4
2018-12-21T15:21:53.279Z,30.4
2018-12-21T15:22:42.913Z,30.4
2018-12-21T15:23:33.256Z,30.4
2018-12-21T15:24:21.851Z,30.4
2018-12-21T15:25:13.433Z,30.4
2018-12-21T15:26:03.590Z,30.4
2018-12-21T15:26:52.816Z,30.4
2018-12-21T15:27:42.863Z,30.4
2018-12-21T15:28:32.750Z,30.4
2018-12-21T15:29:22.728Z,30.4
2018-12-21T15:30:13.153Z,30.4
2018-12-21T15:31:03.090Z,30.4
2018-12-21T15:31:53.260Z,30.4
2018-12-21T15:32:43.500Z,30.4
2018-12-21T15:33:33.545Z,30.4
2018-12-21T15:34:23.862Z,30.4
2018-12-21T15:35:13.682Z,30.4
2018-12-21T15:36:02.890Z,30.3
2018-12-21T15:36:53.777Z,30.3
2018-12-21T15:37:43.547Z,30.3
2018-12-21T15:38:33.700Z,30.3
2018-12-21T15:39:24.222Z,30.3
2018-12-21T15:40:13.782Z,30.3
2018-12-21T15:41:04.443Z,30.3
2018-12-21T15:41:54.382Z,30.3
2018-12-21T15:42:43.315Z,30.3
2018-12-21T15:43:34.481Z,30.3
2018-12-21T15:44:24.022Z,30.3
2018-12-21T15:45:14.321Z,30.3
2018-12-21T15:46:04.242Z,30.3
2018-12-21T15:46:54.434Z,30.3
2018-12-21T15:47:44.804Z,30.3
2018-12-21T15:48:34.864Z,30.3
2018-12-21T15:49:24.889Z,30.3
2018-12-21T15:50:14.687Z,30.3
2018-12-21T15:51:04.252Z,30.3
2018-12-21T15:51:54.982Z,30.3
2018-12-21T15:52:44.917Z,30.3
2018-12-21T15:53:33.571Z,30.3
2018-12-21T15:54:25.129Z,30.3
2018-12-21T15:55:14.877Z,30.3
2018-12-21T15:56:05.316Z,30.3
2018-12-21T15:56:55.397Z,30.3
2018-12-21T15:57:44.411Z,30.2
2018-12-21T15:58:35.034Z,30.3
2018-12-21T15:59:25.009Z,30.3
2018-12-21T16:00:17.731Z,30.2
2018-12-21T16:01:05.781Z,30.2
2018-12-21T16:01:55.998Z,30.2
2018-12-21T16:02:44.964Z,30.3
2018-12-21T16:03:35.813Z,30.2
2018-12-21T16:04:25.344Z,30.2
2018-12-21T16:05:15.969Z,30.2
2018-12-21T16:06:06.008Z,30.2
2018-12-21T16:06:56.380Z,30.2
2018-12-21T16:07:46.658Z,30.2
2018-12-21T16:08:36.488Z,30.2
2018-12-21T16:09:26.242Z,30.2
2018-12-21T16:10:16.298Z,30.2
2018-12-21T16:11:06.639Z,30.2
2018-12-21T16:11:56.690Z,30.2
2018-12-21T16:12:46.578Z,30.2
2018-12-21T16:13:36.234Z,30.2
2018-12-21T16:14:37.266Z,30.1
2018-12-21T16:15:16.441Z,30.1
2018-12-21T16:16:06.686Z,30.1
2018-12-21T16:16:56.128Z,30.1
2018-12-21T16:17:46.541Z,30.1
2018-12-21T16:18:36.036Z,30.1